Flight Track Log - Related Links

Times and Time Zones

All times are in EDT time to prevent confusion due to time zone crossing. See the N340K flight status page for this flight to view local times or setup timezone preferences in your user account.

Time Position Orientation Groundspeed Altitude Reporting Facility
EDT Latitude Longitude Course Direction KTS MPH feet Rate Location/Type
Mon 09:05:05 AM 46.0600 -120.0897 329° Northwest 143 165 10,100  Level Seattle Center
Mon 09:06:05 AM 46.0875 -120.1172 325° Northwest 142 163 10,900 992 Climbing Seattle Center
Mon 09:07:06 AM 46.1286 -120.1536 328° Northwest 152 175 12,100 992 Climbing Seattle Center
Mon 09:08:06 AM 46.1589 -120.1825 327° Northwest 152 175 12,900 900 Climbing Seattle Center
Mon 09:09:00 AM 45.9941 -119.9940 325° Northwest  Level FlightAware Approximate
Mon 09:09:06 AM 46.1931 -120.2147 327° Northwest 149 171 13,900  Level Seattle Center
Mon 09:10:07 AM 46.2294 -120.2481 328° Northwest 154 177 14,800 942 Climbing Seattle Center
Mon 09:11:07 AM 46.2669 -120.2803 329° Northwest 157 181 15,800 645 Climbing Seattle Center
Mon 09:12:08 AM 46.3125 -120.3264 325° Northwest 174 200 16,100 149 Climbing Seattle Center
Mon 09:13:08 AM 46.3603 -120.3675 329° Northwest 197 227 16,100  Level Seattle Center
Mon 09:14:09 AM 46.4069 -120.4114 327° Northwest 200 230 16,100  Level Seattle Center
Mon 09:15:09 AM 46.4531 -120.4536 328° Northwest 197 227 16,100  Level Seattle Center
Mon 09:16:10 AM 46.5003 -120.4956 329° Northwest 195 224 16,100  Level Seattle Center
Mon 09:17:10 AM 46.5378 -120.5342 325° Northwest 187 215 16,100  Level Seattle Center
Mon 09:18:11 AM 46.5861 -120.5778 328° Northwest 189 217 16,100  Level Seattle Center
Mon 09:19:11 AM 46.6322 -120.6194 328° Northwest 192 221 16,100  Level Seattle Center
Mon 09:20:12 AM 46.6750 -120.6619 326° Northwest 187 215 16,100  Level Seattle Center
Mon 09:21:12 AM 46.7203 -120.7014 329° Northwest 190 219 16,100  Level Seattle Center
Mon 09:22:13 AM 46.7622 -120.7433 326° Northwest 185 213 16,100  Level Seattle Center
Mon 09:23:13 AM 46.8067 -120.7844 328° Northwest 189 217 16,100  Level Seattle Center
Mon 09:24:14 AM 46.8508 -120.8261 327° Northwest 190 219 16,100  Level Seattle Center
Mon 09:25:15 AM 46.8947 -120.8672 327° Northwest 190 219 16,100  Level Seattle Center
Mon 09:26:15 AM 46.9372 -120.9086 326° Northwest 184 212 16,100  Level Seattle Center
Mon 09:27:16 AM 46.9811 -120.9492 328° Northwest 187 215 16,100  Level Seattle Center
Mon 09:28:16 AM 47.0303 -120.9956 327° Northwest 187 215 16,100  Level Seattle Center
Mon 09:29:17 AM 47.0739 -121.0392 326° Northwest 191 220 16,100  Level Seattle Center
Mon 09:30:18 AM 47.1178 -121.0806 327° Northwest 189 217 16,100  Level Seattle Center
Mon 09:31:18 AM 47.1625 -121.1228 327° Northwest 193 222 16,100  Level Seattle Center
Mon 09:32:19 AM 47.2064 -121.1647 327° Northwest 192 221 16,100 -49 Level Seattle Center
Mon 09:33:20 AM 47.2511 -121.2081 327° Northwest 195 224 16,000 -50 Descending Seattle Center
Mon 09:34:20 AM 47.3011 -121.2597 325° Northwest 193 222 16,000  Level Seattle Center
Mon 09:35:21 AM 47.3447 -121.3022 327° Northwest 189 217 16,000 49 Level Seattle Center
Mon 09:36:22 AM 47.3897 -121.3419 329° Northwest 189 217 16,100  Climbing Seattle Center
Mon 09:37:22 AM 47.4322 -121.3864 325° Northwest 188 216 16,000  Descending Seattle Center
Mon 09:38:23 AM 47.4756 -121.4261 328° Northwest 186 214 16,100 49 Climbing Seattle Center
Mon 09:39:24 AM 47.5181 -121.4694 325° Northwest 187 215 16,100 -50 Level Seattle Center
Mon 09:40:24 AM 47.5603 -121.5108 327° Northwest 183 211 16,000 -50 Descending Seattle Center
Mon 09:41:25 AM 47.6064 -121.5550 327° Northwest 183 211 16,000 49 Level Seattle Center
Mon 09:42:26 AM 47.6489 -121.5969 326° Northwest 183 211 16,100  Climbing Seattle Center
Mon 09:43:26 AM 47.6906 -121.6389 326° Northwest 182 209 16,000 -50 Descending Seattle Center
Mon 09:44:27 AM 47.7336 -121.6800 327° Northwest 184 212 16,000 -98 Level Seattle Center
Mon 09:45:28 AM 47.7761 -121.7214 327° Northwest 184 212 15,800 -545 Descending Seattle Center
Mon 09:46:28 AM 47.8222 -121.7708 324° Northwest 197 227 14,900 -744 Descending Seattle Center
Mon 09:47:29 AM 47.8683 -121.8133 328° Northwest 198 228 14,300 -694 Descending Seattle Center
Mon 09:48:29 AM 47.9125 -121.8597 325° Northwest 197 227 13,500 -843 Descending Seattle Center
Mon 09:49:30 AM 47.9583 -121.9064 326° Northwest 202 232 12,600 -836 Descending Seattle Center
Mon 09:50:31 AM 48.0042 -121.9517 327° Northwest 203 234 11,800 -857 Descending Seattle Center
Mon 09:51:36 AM 48.0561 -122.0081 324° Northwest 199 229 10,800 -893 Descending Seattle Center
Mon 09:52:32 AM 48.0956 -122.0400 332° Northwest 200 230 10,000 -872 Descending Seattle Center
Mon 09:53:33 AM 48.1400 -122.0850 326° Northwest 197 227 9,100 -1,091 Descending Seattle Center
Mon 09:54:33 AM 48.1839 -122.1286 326° Northwest 193 222 7,800 -1,289 Descending Seattle Center
Mon 09:55:34 AM 48.2328 -122.1892 320° Northwest 193 222 6,500 -1,279 Descending Seattle Center
Mon 09:56:35 AM 48.2800 -122.2306 330° Northwest 198 228 5,200 -1,388 Descending Seattle Center
Mon 09:57:35 AM 48.3253 -122.2719 329° Northwest 202 232 3,700 -1,500 Descending Seattle Center

Login

Don't have an account? Register now (free) for customized features, flight alerts, and more!